IBE14N LTAC-LBSF
Flight info
| Callsign | IBE14N |
|---|---|
| Flight time | 1h 21m |
| Altitude | 38000 |
| Route | YAVRU UA4 ERKAL UL615 VADEN Y520 OSTEX DCT ADUNO P92 PDV N739 RUMEN |
| Aircraft | A320/M-SDE3FGHIRWY/LB1 |
Departure
| Time | 2026-05-07 07:36 |
|---|---|
| Airport | Esenboğa International Airport (LTAC) |
Arrival
| Time | 2026-05-07 08:57 |
|---|---|
| Airport | Sofia Airport (LBSF) |
| Time | Latitude | Longitude | Altitude | Speed | Heading |
|---|---|---|---|---|---|
| 2026-05-07 07:26 | 40.12562 | 33.00118 | 3113 ft | 0 kts | 167° |
| 2026-05-07 07:27 | 40.12563 | 33.00118 | 3122 ft | 0 kts | 167° |
| 2026-05-07 07:27 | 40.12562 | 33.00118 | 3123 ft | 0 kts | 167° |
| 2026-05-07 07:32 | 40.12545 | 33.00066 | 3123 ft | 15 kts | 269° |
| 2026-05-07 07:32 | 40.12635 | 32.99955 | 3123 ft | 20 kts | 348° |
| 2026-05-07 07:32 | 40.12783 | 32.99959 | 3123 ft | 25 kts | 13° |
| 2026-05-07 07:32 | 40.12957 | 33.00086 | 3125 ft | 33 kts | 37° |
| 2026-05-07 07:33 | 40.13012 | 33.00144 | 3124 ft | 0 kts | 40° |
| 2026-05-07 07:34 | 40.13022 | 33.00156 | 3125 ft | 8 kts | 41° |
| 2026-05-07 07:34 | 40.13093 | 33.00232 | 3124 ft | 14 kts | 38° |
| 2026-05-07 07:34 | 40.13168 | 33.00305 | 3125 ft | 13 kts | 36° |
| 2026-05-07 07:34 | 40.13260 | 33.00348 | 3128 ft | 19 kts | 355° |
| 2026-05-07 07:35 | 40.13367 | 33.00258 | 3128 ft | 18 kts | 283° |
| 2026-05-07 07:35 | 40.13299 | 33.00128 | 3127 ft | 24 kts | 218° |
| 2026-05-07 07:35 | 40.12964 | 32.99806 | 3121 ft | 95 kts | 214° |
| 2026-05-07 07:35 | 40.12266 | 32.99146 | 3118 ft | 151 kts | 216° |
| 2026-05-07 07:36 | 40.11357 | 32.98263 | 3448 ft | 170 kts | 218° |
| 2026-05-07 07:36 | 40.10397 | 32.97319 | 4090 ft | 176 kts | 217° |
| 2026-05-07 07:36 | 40.09381 | 32.96324 | 4597 ft | 190 kts | 217° |
| 2026-05-07 07:36 | 40.08276 | 32.95250 | 5073 ft | 205 kts | 217° |
| 2026-05-07 07:37 | 40.07086 | 32.94094 | 5493 ft | 224 kts | 217° |
| 2026-05-07 07:37 | 40.05783 | 32.92830 | 6048 ft | 241 kts | 217° |
| 2026-05-07 07:37 | 40.04433 | 32.91521 | 6839 ft | 248 kts | 217° |
| 2026-05-07 07:37 | 40.03038 | 32.90171 | 7720 ft | 252 kts | 218° |
| 2026-05-07 07:38 | 40.01929 | 32.88434 | 8606 ft | 253 kts | 250° |
| 2026-05-07 07:38 | 40.01780 | 32.86170 | 9383 ft | 259 kts | 284° |
| 2026-05-07 07:38 | 40.02557 | 32.83996 | 9995 ft | 273 kts | 303° |
| 2026-05-07 07:38 | 40.03697 | 32.81934 | 10514 ft | 289 kts | 309° |
| 2026-05-07 07:39 | 40.05006 | 32.79841 | 10969 ft | 306 kts | 310° |
| 2026-05-07 07:39 | 40.06405 | 32.77647 | 11426 ft | 323 kts | 310° |
| 2026-05-07 07:39 | 40.07843 | 32.75336 | 12047 ft | 332 kts | 309° |
| 2026-05-07 07:39 | 40.09282 | 32.72947 | 12827 ft | 337 kts | 308° |
| 2026-05-07 07:40 | 40.10713 | 32.70501 | 13617 ft | 341 kts | 307° |
| 2026-05-07 07:40 | 40.12146 | 32.68000 | 14340 ft | 346 kts | 307° |
| 2026-05-07 07:40 | 40.13582 | 32.65467 | 15034 ft | 349 kts | 307° |
| 2026-05-07 07:40 | 40.15027 | 32.62911 | 15764 ft | 351 kts | 307° |
| 2026-05-07 07:41 | 40.16480 | 32.60339 | 16515 ft | 352 kts | 307° |
| 2026-05-07 07:41 | 40.17942 | 32.57755 | 17226 ft | 354 kts | 307° |
| 2026-05-07 07:41 | 40.19411 | 32.55164 | 17945 ft | 356 kts | 308° |
| 2026-05-07 07:41 | 40.20982 | 32.52648 | 18638 ft | 357 kts | 315° |
| 2026-05-07 07:42 | 40.22786 | 32.50406 | 19264 ft | 359 kts | 317° |
| 2026-05-07 07:42 | 40.24613 | 32.48161 | 19893 ft | 361 kts | 318° |
| 2026-05-07 07:42 | 40.26447 | 32.45908 | 20505 ft | 363 kts | 318° |
| 2026-05-07 07:42 | 40.28290 | 32.43644 | 21145 ft | 364 kts | 318° |
| 2026-05-07 07:43 | 40.30140 | 32.41362 | 21771 ft | 366 kts | 318° |
| 2026-05-07 07:43 | 40.31999 | 32.39060 | 22378 ft | 368 kts | 318° |
| 2026-05-07 07:43 | 40.33865 | 32.36746 | 22989 ft | 371 kts | 318° |
| 2026-05-07 07:43 | 40.35717 | 32.34447 | 23609 ft | 373 kts | 318° |
| 2026-05-07 07:44 | 40.37606 | 32.32103 | 24129 ft | 375 kts | 318° |
| 2026-05-07 07:44 | 40.39504 | 32.29747 | 24595 ft | 377 kts | 318° |
| 2026-05-07 07:44 | 40.41420 | 32.27370 | 25054 ft | 380 kts | 318° |
| 2026-05-07 07:44 | 40.43345 | 32.24984 | 25486 ft | 382 kts | 318° |
| 2026-05-07 07:45 | 40.45281 | 32.22570 | 25919 ft | 385 kts | 316° |
| 2026-05-07 07:45 | 40.47000 | 32.19868 | 26354 ft | 389 kts | 306° |
| 2026-05-07 07:45 | 40.48330 | 32.16748 | 26776 ft | 394 kts | 296° |
| 2026-05-07 07:45 | 40.49340 | 32.13382 | 27162 ft | 397 kts | 294° |
| 2026-05-07 07:46 | 40.50340 | 32.09985 | 27561 ft | 399 kts | 294° |
| 2026-05-07 07:46 | 40.51349 | 32.06573 | 27968 ft | 402 kts | 294° |
| 2026-05-07 07:46 | 40.52368 | 32.03150 | 28383 ft | 403 kts | 294° |
| 2026-05-07 07:46 | 40.53394 | 31.99703 | 28780 ft | 405 kts | 294° |
| 2026-05-07 07:47 | 40.54419 | 31.96244 | 29159 ft | 407 kts | 294° |
| 2026-05-07 07:47 | 40.55445 | 31.92768 | 29536 ft | 409 kts | 294° |
| 2026-05-07 07:47 | 40.56474 | 31.89268 | 29907 ft | 411 kts | 294° |
| 2026-05-07 07:47 | 40.57503 | 31.85753 | 30287 ft | 413 kts | 294° |
| 2026-05-07 07:48 | 40.58527 | 31.82220 | 30585 ft | 414 kts | 294° |
| 2026-05-07 07:48 | 40.59476 | 31.78678 | 30896 ft | 416 kts | 292° |
| 2026-05-07 07:48 | 40.60389 | 31.75005 | 31196 ft | 418 kts | 291° |
| 2026-05-07 07:48 | 40.61253 | 31.71395 | 31474 ft | 419 kts | 291° |
| 2026-05-07 07:49 | 40.62123 | 31.67724 | 31753 ft | 420 kts | 291° |
| 2026-05-07 07:49 | 40.62999 | 31.64060 | 32117 ft | 419 kts | 291° |
| 2026-05-07 07:49 | 40.63883 | 31.60414 | 32511 ft | 417 kts | 292° |
| 2026-05-07 07:49 | 40.64768 | 31.56792 | 32916 ft | 415 kts | 292° |
| 2026-05-07 07:50 | 40.65655 | 31.53176 | 33324 ft | 413 kts | 292° |
| 2026-05-07 07:50 | 40.66541 | 31.49581 | 33727 ft | 412 kts | 292° |
| 2026-05-07 07:50 | 40.67428 | 31.45996 | 34113 ft | 410 kts | 292° |
| 2026-05-07 07:50 | 40.68310 | 31.42428 | 34444 ft | 409 kts | 292° |
| 2026-05-07 07:51 | 40.69185 | 31.38864 | 34744 ft | 409 kts | 292° |
| 2026-05-07 07:51 | 40.70056 | 31.35297 | 35015 ft | 409 kts | 292° |
| 2026-05-07 07:51 | 40.70925 | 31.31728 | 35284 ft | 409 kts | 291° |
| 2026-05-07 07:51 | 40.71794 | 31.28152 | 35547 ft | 409 kts | 291° |
| 2026-05-07 07:52 | 40.72659 | 31.24583 | 35802 ft | 409 kts | 291° |
| 2026-05-07 07:52 | 40.73525 | 31.21006 | 36041 ft | 409 kts | 291° |
| 2026-05-07 07:52 | 40.74388 | 31.17429 | 36278 ft | 409 kts | 291° |
| 2026-05-07 07:52 | 40.75251 | 31.13855 | 36511 ft | 409 kts | 291° |
| 2026-05-07 07:53 | 40.76104 | 31.10324 | 36765 ft | 409 kts | 291° |
| 2026-05-07 07:53 | 40.76978 | 31.06707 | 36993 ft | 409 kts | 291° |
| 2026-05-07 07:53 | 40.77833 | 31.03180 | 37204 ft | 409 kts | 291° |
| 2026-05-07 07:53 | 40.78695 | 30.99608 | 37407 ft | 409 kts | 291° |
| 2026-05-07 07:54 | 40.79556 | 30.96027 | 37593 ft | 409 kts | 291° |
| 2026-05-07 07:54 | 40.80415 | 30.92444 | 37786 ft | 409 kts | 291° |
| 2026-05-07 07:54 | 40.81270 | 30.88865 | 38003 ft | 409 kts | 291° |
| 2026-05-07 07:54 | 40.82124 | 30.85282 | 38143 ft | 409 kts | 291° |
| 2026-05-07 07:55 | 40.82975 | 30.81702 | 38164 ft | 408 kts | 291° |
| 2026-05-07 07:55 | 40.84675 | 30.74545 | 38159 ft | 408 kts | 290° |
| 2026-05-07 07:56 | 40.86376 | 30.67396 | 38163 ft | 408 kts | 290° |
| 2026-05-07 07:56 | 40.87866 | 30.60146 | 38159 ft | 410 kts | 287° |
| 2026-05-07 07:57 | 40.89109 | 30.52797 | 38157 ft | 410 kts | 286° |
| 2026-05-07 07:57 | 40.90338 | 30.45444 | 38156 ft | 409 kts | 286° |
| 2026-05-07 07:58 | 40.91625 | 30.38115 | 38151 ft | 409 kts | 287° |
| 2026-05-07 07:58 | 40.92937 | 30.30787 | 38152 ft | 409 kts | 287° |
| 2026-05-07 07:59 | 40.94238 | 30.23463 | 38154 ft | 409 kts | 287° |
| 2026-05-07 07:59 | 40.95528 | 30.16136 | 38156 ft | 409 kts | 286° |
| 2026-05-07 08:00 | 40.96797 | 30.08803 | 38168 ft | 409 kts | 286° |
| 2026-05-07 08:00 | 40.98060 | 30.01478 | 38159 ft | 408 kts | 286° |
| 2026-05-07 08:01 | 40.99325 | 29.94160 | 38159 ft | 407 kts | 286° |
| 2026-05-07 08:01 | 41.00563 | 29.86889 | 38163 ft | 407 kts | 286° |
| 2026-05-07 08:02 | 41.01806 | 29.79529 | 38160 ft | 407 kts | 285° |
| 2026-05-07 08:02 | 41.03035 | 29.72233 | 38147 ft | 406 kts | 285° |
| 2026-05-07 08:03 | 41.04245 | 29.64987 | 38141 ft | 406 kts | 285° |
| 2026-05-07 08:03 | 41.05467 | 29.57707 | 38135 ft | 405 kts | 285° |
| 2026-05-07 08:04 | 41.06698 | 29.50419 | 38126 ft | 405 kts | 285° |
| 2026-05-07 08:04 | 41.07921 | 29.43145 | 38129 ft | 404 kts | 285° |
| 2026-05-07 08:05 | 41.09132 | 29.35876 | 38135 ft | 404 kts | 285° |
| 2026-05-07 08:05 | 41.10339 | 29.28600 | 38137 ft | 404 kts | 285° |
| 2026-05-07 08:06 | 41.11539 | 29.21336 | 38138 ft | 403 kts | 285° |
| 2026-05-07 08:06 | 41.13033 | 29.14203 | 38132 ft | 400 kts | 296° |
| 2026-05-07 08:07 | 41.15901 | 29.07913 | 38133 ft | 399 kts | 304° |
| 2026-05-07 08:07 | 41.18979 | 29.01782 | 38128 ft | 399 kts | 304° |
| 2026-05-07 08:08 | 41.22046 | 28.95637 | 38135 ft | 399 kts | 304° |
| 2026-05-07 08:08 | 41.25115 | 28.89488 | 38142 ft | 399 kts | 304° |
| 2026-05-07 08:09 | 41.28178 | 28.83337 | 38145 ft | 399 kts | 304° |
| 2026-05-07 08:09 | 41.31214 | 28.77220 | 38145 ft | 399 kts | 304° |
| 2026-05-07 08:10 | 41.34267 | 28.71066 | 38141 ft | 398 kts | 304° |
| 2026-05-07 08:10 | 41.37321 | 28.64903 | 38139 ft | 398 kts | 304° |
| 2026-05-07 08:11 | 41.40367 | 28.58745 | 38141 ft | 398 kts | 304° |
| 2026-05-07 08:11 | 41.42892 | 28.53620 | 38142 ft | 398 kts | 303° |
| 2026-05-07 08:12 | 41.45921 | 28.47450 | 38144 ft | 398 kts | 303° |
| 2026-05-07 08:12 | 41.48950 | 28.41284 | 38140 ft | 397 kts | 303° |
| 2026-05-07 08:13 | 41.51980 | 28.35116 | 38137 ft | 397 kts | 303° |
| 2026-05-07 08:13 | 41.55002 | 28.28950 | 38144 ft | 397 kts | 303° |
| 2026-05-07 08:14 | 41.58019 | 28.22770 | 38150 ft | 396 kts | 303° |
| 2026-05-07 08:14 | 41.61026 | 28.16602 | 38150 ft | 396 kts | 303° |
| 2026-05-07 08:15 | 41.64025 | 28.10422 | 38149 ft | 396 kts | 303° |
| 2026-05-07 08:15 | 41.67023 | 28.04241 | 38147 ft | 396 kts | 303° |
| 2026-05-07 08:16 | 41.70018 | 27.98069 | 38145 ft | 396 kts | 303° |
| 2026-05-07 08:16 | 41.73006 | 27.91887 | 38143 ft | 395 kts | 303° |
| 2026-05-07 08:17 | 41.75988 | 27.85708 | 38136 ft | 395 kts | 303° |
| 2026-05-07 08:17 | 41.78973 | 27.79527 | 38143 ft | 395 kts | 303° |
| 2026-05-07 08:18 | 41.81945 | 27.73345 | 38133 ft | 395 kts | 303° |
| 2026-05-07 08:18 | 41.84911 | 27.67156 | 38135 ft | 394 kts | 303° |
| 2026-05-07 08:19 | 41.87846 | 27.61013 | 38130 ft | 394 kts | 303° |
| 2026-05-07 08:19 | 41.90797 | 27.54829 | 38118 ft | 394 kts | 303° |
| 2026-05-07 08:20 | 41.93745 | 27.48645 | 38119 ft | 393 kts | 303° |
| 2026-05-07 08:20 | 41.96702 | 27.42442 | 38119 ft | 393 kts | 303° |
| 2026-05-07 08:21 | 41.99641 | 27.36244 | 38124 ft | 393 kts | 302° |
| 2026-05-07 08:21 | 42.02578 | 27.30033 | 38119 ft | 394 kts | 302° |
| 2026-05-07 08:22 | 42.05516 | 27.23824 | 38129 ft | 393 kts | 302° |
| 2026-05-07 08:22 | 42.08107 | 27.17359 | 38120 ft | 393 kts | 296° |
| 2026-05-07 08:23 | 42.10495 | 27.10752 | 38115 ft | 392 kts | 296° |
| 2026-05-07 08:23 | 42.12878 | 27.04142 | 38114 ft | 393 kts | 296° |
| 2026-05-07 08:24 | 42.15063 | 26.97407 | 38113 ft | 393 kts | 287° |
| 2026-05-07 08:24 | 42.15622 | 26.90070 | 38108 ft | 398 kts | 268° |
| 2026-05-07 08:25 | 42.15175 | 26.82632 | 38109 ft | 398 kts | 268° |
| 2026-05-07 08:25 | 42.14727 | 26.75190 | 38116 ft | 399 kts | 268° |
| 2026-05-07 08:26 | 42.14042 | 26.64084 | 38126 ft | 398 kts | 268° |
| 2026-05-07 08:26 | 42.13580 | 26.56660 | 38121 ft | 398 kts | 268° |
| 2026-05-07 08:27 | 42.13112 | 26.49229 | 38118 ft | 398 kts | 268° |
| 2026-05-07 08:27 | 42.12648 | 26.41803 | 38121 ft | 398 kts | 268° |
| 2026-05-07 08:28 | 42.12173 | 26.34356 | 37825 ft | 400 kts | 268° |
| 2026-05-07 08:28 | 42.11931 | 26.30615 | 37546 ft | 401 kts | 267° |
| 2026-05-07 08:28 | 42.11686 | 26.26866 | 37270 ft | 402 kts | 267° |
| 2026-05-07 08:29 | 42.11439 | 26.23117 | 37000 ft | 403 kts | 268° |
| 2026-05-07 08:29 | 42.11189 | 26.19342 | 36722 ft | 405 kts | 268° |
| 2026-05-07 08:29 | 42.10938 | 26.15563 | 36480 ft | 406 kts | 268° |
| 2026-05-07 08:29 | 42.10689 | 26.11776 | 36207 ft | 406 kts | 268° |
| 2026-05-07 08:30 | 42.10441 | 26.07993 | 35946 ft | 405 kts | 268° |
| 2026-05-07 08:30 | 42.10192 | 26.04227 | 35687 ft | 403 kts | 268° |
| 2026-05-07 08:30 | 42.09941 | 26.00473 | 35432 ft | 402 kts | 268° |
| 2026-05-07 08:30 | 42.09688 | 25.96727 | 35182 ft | 401 kts | 268° |
| 2026-05-07 08:31 | 42.09436 | 25.92998 | 34932 ft | 399 kts | 268° |
| 2026-05-07 08:31 | 42.09184 | 25.89283 | 34683 ft | 398 kts | 268° |
| 2026-05-07 08:31 | 42.08929 | 25.85579 | 34441 ft | 396 kts | 268° |
| 2026-05-07 08:31 | 42.08676 | 25.81937 | 34204 ft | 395 kts | 268° |
| 2026-05-07 08:32 | 42.08417 | 25.78218 | 33938 ft | 394 kts | 268° |
| 2026-05-07 08:32 | 42.08163 | 25.74554 | 33659 ft | 392 kts | 267° |
| 2026-05-07 08:32 | 42.07913 | 25.70955 | 33387 ft | 390 kts | 267° |
| 2026-05-07 08:32 | 42.07660 | 25.67325 | 33116 ft | 388 kts | 267° |
| 2026-05-07 08:33 | 42.07407 | 25.63711 | 32849 ft | 387 kts | 267° |
| 2026-05-07 08:33 | 42.07153 | 25.60127 | 32585 ft | 385 kts | 267° |
| 2026-05-07 08:33 | 42.06897 | 25.56539 | 32325 ft | 384 kts | 267° |
| 2026-05-07 08:33 | 42.06641 | 25.52974 | 32061 ft | 382 kts | 267° |
| 2026-05-07 08:34 | 42.06386 | 25.49422 | 31808 ft | 381 kts | 266° |
| 2026-05-07 08:34 | 42.06131 | 25.45884 | 31550 ft | 379 kts | 267° |
| 2026-05-07 08:34 | 42.05950 | 25.42357 | 31299 ft | 377 kts | 269° |
| 2026-05-07 08:34 | 42.05878 | 25.38833 | 31049 ft | 375 kts | 271° |
| 2026-05-07 08:35 | 42.05864 | 25.35329 | 30805 ft | 374 kts | 271° |
| 2026-05-07 08:35 | 42.05868 | 25.31834 | 30558 ft | 373 kts | 271° |
| 2026-05-07 08:35 | 42.05869 | 25.28353 | 30321 ft | 372 kts | 271° |
| 2026-05-07 08:35 | 42.05855 | 25.24877 | 30059 ft | 371 kts | 271° |
| 2026-05-07 08:36 | 42.05823 | 25.21421 | 29777 ft | 369 kts | 270° |
| 2026-05-07 08:36 | 42.05780 | 25.17976 | 29498 ft | 367 kts | 270° |
| 2026-05-07 08:36 | 42.05732 | 25.14542 | 29221 ft | 366 kts | 270° |
| 2026-05-07 08:36 | 42.05683 | 25.11123 | 28950 ft | 365 kts | 270° |
| 2026-05-07 08:37 | 42.05634 | 25.07767 | 28681 ft | 363 kts | 270° |
| 2026-05-07 08:37 | 42.05586 | 25.04377 | 28412 ft | 362 kts | 270° |
| 2026-05-07 08:37 | 42.05539 | 25.01004 | 28147 ft | 360 kts | 270° |
| 2026-05-07 08:37 | 42.05491 | 24.97640 | 27883 ft | 359 kts | 270° |
| 2026-05-07 08:38 | 42.05443 | 24.94293 | 27625 ft | 358 kts | 270° |
| 2026-05-07 08:38 | 42.05442 | 24.90954 | 27365 ft | 356 kts | 275° |
| 2026-05-07 08:38 | 42.05857 | 24.87689 | 27108 ft | 354 kts | 286° |
| 2026-05-07 08:38 | 42.06749 | 24.84614 | 26855 ft | 353 kts | 297° |
| 2026-05-07 08:39 | 42.07993 | 24.81769 | 26604 ft | 352 kts | 300° |
| 2026-05-07 08:39 | 42.09261 | 24.78955 | 26361 ft | 351 kts | 300° |
| 2026-05-07 08:39 | 42.10519 | 24.76154 | 26092 ft | 345 kts | 300° |
| 2026-05-07 08:39 | 42.11744 | 24.73427 | 25681 ft | 335 kts | 300° |
| 2026-05-07 08:40 | 42.12937 | 24.70772 | 25240 ft | 328 kts | 300° |
| 2026-05-07 08:40 | 42.14107 | 24.68168 | 24804 ft | 321 kts | 300° |
| 2026-05-07 08:40 | 42.15249 | 24.65620 | 24372 ft | 315 kts | 300° |
| 2026-05-07 08:40 | 42.16377 | 24.63100 | 23941 ft | 313 kts | 300° |
| 2026-05-07 08:41 | 42.17495 | 24.60596 | 23470 ft | 311 kts | 300° |
| 2026-05-07 08:41 | 42.18606 | 24.58098 | 23031 ft | 310 kts | 300° |
| 2026-05-07 08:41 | 42.19711 | 24.55613 | 22605 ft | 308 kts | 300° |
| 2026-05-07 08:41 | 42.20813 | 24.53139 | 22184 ft | 307 kts | 300° |
| 2026-05-07 08:42 | 42.21909 | 24.50678 | 21774 ft | 305 kts | 300° |
| 2026-05-07 08:42 | 42.23000 | 24.48229 | 21367 ft | 304 kts | 300° |
| 2026-05-07 08:42 | 42.24084 | 24.45794 | 20962 ft | 302 kts | 300° |
| 2026-05-07 08:42 | 42.25163 | 24.43368 | 20561 ft | 300 kts | 300° |
| 2026-05-07 08:43 | 42.26235 | 24.40956 | 20168 ft | 299 kts | 300° |
| 2026-05-07 08:43 | 42.27299 | 24.38556 | 19776 ft | 297 kts | 300° |
| 2026-05-07 08:43 | 42.28355 | 24.36167 | 19378 ft | 296 kts | 300° |
| 2026-05-07 08:43 | 42.29412 | 24.33795 | 18983 ft | 294 kts | 302° |
| 2026-05-07 08:44 | 42.30683 | 24.31649 | 18608 ft | 293 kts | 314° |
| 2026-05-07 08:44 | 42.32259 | 24.29918 | 18202 ft | 293 kts | 326° |
| 2026-05-07 08:44 | 42.34009 | 24.28514 | 17806 ft | 292 kts | 327° |
| 2026-05-07 08:44 | 42.35753 | 24.27117 | 17426 ft | 291 kts | 327° |
| 2026-05-07 08:45 | 42.37491 | 24.25714 | 17050 ft | 290 kts | 327° |
| 2026-05-07 08:45 | 42.39218 | 24.24316 | 16683 ft | 289 kts | 327° |
| 2026-05-07 08:45 | 42.40944 | 24.22919 | 16320 ft | 288 kts | 327° |
| 2026-05-07 08:45 | 42.42664 | 24.21528 | 15953 ft | 288 kts | 327° |
| 2026-05-07 08:46 | 42.44358 | 24.20158 | 15592 ft | 287 kts | 327° |
| 2026-05-07 08:46 | 42.46071 | 24.18776 | 15239 ft | 287 kts | 327° |
| 2026-05-07 08:46 | 42.47781 | 24.17395 | 14878 ft | 286 kts | 327° |
| 2026-05-07 08:46 | 42.49486 | 24.16015 | 14519 ft | 285 kts | 327° |
| 2026-05-07 08:47 | 42.51185 | 24.14635 | 14163 ft | 285 kts | 327° |
| 2026-05-07 08:47 | 42.52882 | 24.13253 | 13786 ft | 284 kts | 327° |
| 2026-05-07 08:47 | 42.54574 | 24.11879 | 13408 ft | 283 kts | 327° |
| 2026-05-07 08:47 | 42.56260 | 24.10508 | 13044 ft | 283 kts | 327° |
| 2026-05-07 08:48 | 42.57945 | 24.09137 | 12676 ft | 281 kts | 327° |
| 2026-05-07 08:48 | 42.59532 | 24.07619 | 12316 ft | 279 kts | 316° |
| 2026-05-07 08:48 | 42.60844 | 24.05714 | 11951 ft | 273 kts | 309° |
| 2026-05-07 08:48 | 42.62074 | 24.03772 | 11598 ft | 270 kts | 309° |
| 2026-05-07 08:49 | 42.63290 | 24.01856 | 11236 ft | 266 kts | 309° |
| 2026-05-07 08:49 | 42.64490 | 23.99967 | 10882 ft | 262 kts | 309° |
| 2026-05-07 08:49 | 42.65535 | 23.97964 | 10482 ft | 259 kts | 296° |
| 2026-05-07 08:49 | 42.66183 | 23.95686 | 10084 ft | 259 kts | 282° |
| 2026-05-07 08:50 | 42.66441 | 23.93285 | 9686 ft | 256 kts | 273° |
| 2026-05-07 08:50 | 42.66578 | 23.90877 | 9311 ft | 255 kts | 272° |
| 2026-05-07 08:50 | 42.66723 | 23.88483 | 8945 ft | 253 kts | 273° |
| 2026-05-07 08:50 | 42.66873 | 23.86152 | 8586 ft | 252 kts | 274° |
| 2026-05-07 08:51 | 42.67026 | 23.83784 | 8215 ft | 251 kts | 273° |
| 2026-05-07 08:51 | 42.67176 | 23.81434 | 7844 ft | 249 kts | 273° |
| 2026-05-07 08:51 | 42.67326 | 23.79083 | 7467 ft | 248 kts | 273° |
| 2026-05-07 08:51 | 42.67473 | 23.76777 | 7095 ft | 248 kts | 273° |
| 2026-05-07 08:52 | 42.67620 | 23.74457 | 6713 ft | 246 kts | 273° |
| 2026-05-07 08:52 | 42.67767 | 23.72138 | 6230 ft | 248 kts | 273° |
| 2026-05-07 08:52 | 42.67916 | 23.69767 | 5580 ft | 255 kts | 274° |
| 2026-05-07 08:52 | 42.68065 | 23.67397 | 5154 ft | 244 kts | 274° |
| 2026-05-07 08:53 | 42.68204 | 23.65191 | 4824 ft | 225 kts | 274° |
| 2026-05-07 08:53 | 42.68332 | 23.63147 | 4541 ft | 209 kts | 274° |
| 2026-05-07 08:53 | 42.68450 | 23.61236 | 4271 ft | 197 kts | 274° |
| 2026-05-07 08:53 | 42.68564 | 23.59402 | 4025 ft | 194 kts | 274° |
| 2026-05-07 08:54 | 42.68673 | 23.57640 | 3782 ft | 180 kts | 274° |
| 2026-05-07 08:54 | 42.68773 | 23.56017 | 3553 ft | 165 kts | 274° |
| 2026-05-07 08:54 | 42.68866 | 23.54517 | 3319 ft | 153 kts | 275° |
| 2026-05-07 08:54 | 42.68951 | 23.53130 | 3115 ft | 143 kts | 275° |
| 2026-05-07 08:55 | 42.69033 | 23.51783 | 2917 ft | 143 kts | 275° |
| 2026-05-07 08:55 | 42.69116 | 23.50432 | 2721 ft | 143 kts | 276° |
| 2026-05-07 08:55 | 42.69199 | 23.49083 | 2521 ft | 142 kts | 276° |
| 2026-05-07 08:55 | 42.69280 | 23.47755 | 2342 ft | 140 kts | 275° |
| 2026-05-07 08:56 | 42.69359 | 23.46448 | 2145 ft | 138 kts | 278° |
| 2026-05-07 08:56 | 42.69440 | 23.45161 | 1938 ft | 135 kts | 276° |
| 2026-05-07 08:56 | 42.69517 | 23.43901 | 1765 ft | 129 kts | 275° |
| 2026-05-07 08:56 | 42.69578 | 23.42942 | 1751 ft | 69 kts | 274° |
| 2026-05-07 08:57 | 42.69615 | 23.42380 | 1750 ft | 55 kts | 277° |
| 2026-05-07 08:57 | 42.69637 | 23.41892 | 1748 ft | 50 kts | 275° |
| 2026-05-07 08:57 | 42.69599 | 23.41583 | 1743 ft | 29 kts | 244° |
| 2026-05-07 08:57 | 42.69509 | 23.41335 | 1748 ft | 30 kts | 248° |
| 2026-05-07 08:58 | 42.69358 | 23.41198 | 1750 ft | 28 kts | 192° |
| 2026-05-07 08:58 | 42.69173 | 23.41137 | 1746 ft | 21 kts | 197° |
| 2026-05-07 08:58 | 42.69071 | 23.41141 | 1746 ft | 4 kts | 160° |
| 2026-05-07 08:58 | 42.69071 | 23.41142 | 1747 ft | 0 kts | 160° |